sensor_id;sensor_type;location;lat;lon;timestamp;P1;durP1;ratioP1;P2;durP2;ratioP2
80334;SDS011;69653;52.674;13.574;2023-06-10T00:01:17;9.32;;;3.67;;
80334;SDS011;69653;52.674;13.574;2023-06-10T00:03:43;9.75;;;3.50;;
80334;SDS011;69653;52.674;13.574;2023-06-10T00:06:10;10.75;;;3.47;;
80334;SDS011;69653;52.674;13.574;2023-06-10T00:08:37;8.70;;;2.97;;
80334;SDS011;69653;52.674;13.574;2023-06-10T00:11:04;6.47;;;2.97;;
80334;SDS011;69653;52.674;13.574;2023-06-10T00:13:31;7.45;;;3.15;;
80334;SDS011;69653;52.674;13.574;2023-06-10T00:15:59;8.57;;;3.08;;
80334;SDS011;69653;52.674;13.574;2023-06-10T00:18:26;8.00;;;3.13;;
80334;SDS011;69653;52.674;13.574;2023-06-10T00:20:52;8.88;;;3.28;;
80334;SDS011;69653;52.674;13.574;2023-06-10T00:23:20;9.32;;;3.67;;
80334;SDS011;69653;52.674;13.574;2023-06-10T00:26:08;14.82;;;3.78;;
80334;SDS011;69653;52.674;13.574;2023-06-10T00:28:38;8.45;;;3.85;;
80334;SDS011;69653;52.674;13.574;2023-06-10T00:31:04;8.30;;;3.70;;
80334;SDS011;69653;52.674;13.574;2023-06-10T00:33:30;9.48;;;3.15;;
80334;SDS011;69653;52.674;13.574;2023-06-10T00:35:57;10.20;;;3.28;;
80334;SDS011;69653;52.674;13.574;2023-06-10T00:40:54;8.52;;;3.45;;
80334;SDS011;69653;52.674;13.574;2023-06-10T00:43:24;9.20;;;2.90;;
80334;SDS011;69653;52.674;13.574;2023-06-10T00:45:55;9.68;;;3.50;;
80334;SDS011;69653;52.674;13.574;2023-06-10T00:48:21;8.80;;;3.22;;
80334;SDS011;69653;52.674;13.574;2023-06-10T00:50:48;9.45;;;3.83;;
80334;SDS011;69653;52.674;13.574;2023-06-10T00:53:16;9.40;;;3.28;;
80334;SDS011;69653;52.674;13.574;2023-06-10T00:55:49;7.68;;;3.22;;
80334;SDS011;69653;52.674;13.574;2023-06-10T00:58:19;10.25;;;3.67;;
80334;SDS011;69653;52.674;13.574;2023-06-10T01:00:51;11.30;;;3.92;;
80334;SDS011;69653;52.674;13.574;2023-06-10T01:03:19;9.20;;;3.63;;
80334;SDS011;69653;52.674;13.574;2023-06-10T01:05:50;10.40;;;3.70;;
80334;SDS011;69653;52.674;13.574;2023-06-10T01:08:46;10.57;;;3.25;;
80334;SDS011;69653;52.674;13.574;2023-06-10T01:11:28;8.93;;;3.17;;
80334;SDS011;69653;52.674;13.574;2023-06-10T01:14:15;8.38;;;3.25;;
80334;SDS011;69653;52.674;13.574;2023-06-10T01:16:44;8.80;;;3.70;;
80334;SDS011;69653;52.674;13.574;2023-06-10T01:19:13;10.10;;;3.25;;
80334;SDS011;69653;52.674;13.574;2023-06-10T01:21:45;7.93;;;3.85;;
80334;SDS011;69653;52.674;13.574;2023-06-10T01:24:16;8.25;;;3.63;;
80334;SDS011;69653;52.674;13.574;2023-06-10T01:26:45;8.40;;;3.67;;
80334;SDS011;69653;52.674;13.574;2023-06-10T01:29:26;10.25;;;3.75;;
80334;SDS011;69653;52.674;13.574;2023-06-10T01:32:01;9.75;;;3.72;;
80334;SDS011;69653;52.674;13.574;2023-06-10T01:34:39;8.43;;;3.88;;
80334;SDS011;69653;52.674;13.574;2023-06-10T01:37:13;8.43;;;3.47;;
80334;SDS011;69653;52.674;13.574;2023-06-10T01:39:45;9.20;;;3.78;;
80334;SDS011;69653;52.674;13.574;2023-06-10T01:42:15;8.82;;;3.22;;
80334;SDS011;69653;52.674;13.574;2023-06-10T01:44:50;12.48;;;3.67;;
80334;SDS011;69653;52.674;13.574;2023-06-10T01:47:21;11.48;;;4.03;;
80334;SDS011;69653;52.674;13.574;2023-06-10T01:49:52;9.35;;;3.20;;
80334;SDS011;69653;52.674;13.574;2023-06-10T01:52:20;10.57;;;3.30;;
80334;SDS011;69653;52.674;13.574;2023-06-10T01:54:52;9.02;;;3.60;;
80334;SDS011;69653;52.674;13.574;2023-06-10T01:57:22;10.35;;;3.35;;
80334;SDS011;69653;52.674;13.574;2023-06-10T01:59:48;11.95;;;3.92;;
80334;SDS011;69653;52.674;13.574;2023-06-10T02:02:16;9.13;;;3.45;;
80334;SDS011;69653;52.674;13.574;2023-06-10T02:04:47;8.93;;;3.35;;
80334;SDS011;69653;52.674;13.574;2023-06-10T02:07:17;12.55;;;4.68;;
80334;SDS011;69653;52.674;13.574;2023-06-10T02:09:46;9.55;;;3.38;;
80334;SDS011;69653;52.674;13.574;2023-06-10T02:12:12;11.68;;;4.30;;
80334;SDS011;69653;52.674;13.574;2023-06-10T02:14:39;11.05;;;4.18;;
80334;SDS011;69653;52.674;13.574;2023-06-10T02:17:09;9.40;;;4.03;;
80334;SDS011;69653;52.674;13.574;2023-06-10T02:19:40;8.80;;;3.67;;
80334;SDS011;69653;52.674;13.574;2023-06-10T02:22:20;8.68;;;3.45;;
80334;SDS011;69653;52.674;13.574;2023-06-10T02:24:49;8.80;;;3.28;;
80334;SDS011;69653;52.674;13.574;2023-06-10T02:27:18;8.70;;;3.63;;
80334;SDS011;69653;52.674;13.574;2023-06-10T02:29:50;13.18;;;3.65;;
80334;SDS011;69653;52.674;13.574;2023-06-10T02:32:19;11.43;;;3.75;;
80334;SDS011;69653;52.674;13.574;2023-06-10T02:34:47;8.40;;;3.53;;
80334;SDS011;69653;52.674;13.574;2023-06-10T02:37:40;11.35;;;3.83;;
80334;SDS011;69653;52.674;13.574;2023-06-10T02:40:29;9.00;;;3.60;;
80334;SDS011;69653;52.674;13.574;2023-06-10T02:43:16;9.35;;;3.60;;
80334;SDS011;69653;52.674;13.574;2023-06-10T02:46:13;8.18;;;3.65;;
80334;SDS011;69653;52.674;13.574;2023-06-10T02:49:25;9.13;;;3.80;;
80334;SDS011;69653;52.674;13.574;2023-06-10T02:52:02;9.80;;;4.15;;
80334;SDS011;69653;52.674;13.574;2023-06-10T02:54:39;9.23;;;4.07;;
80334;SDS011;69653;52.674;13.574;2023-06-10T02:57:11;12.90;;;4.13;;
80334;SDS011;69653;52.674;13.574;2023-06-10T02:59:41;11.40;;;3.85;;
80334;SDS011;69653;52.674;13.574;2023-06-10T03:02:31;9.70;;;3.78;;
80334;SDS011;69653;52.674;13.574;2023-06-10T03:05:05;9.30;;;3.88;;
80334;SDS011;69653;52.674;13.574;2023-06-10T03:07:52;11.27;;;4.43;;
80334;SDS011;69653;52.674;13.574;2023-06-10T03:10:37;8.68;;;3.75;;
80334;SDS011;69653;52.674;13.574;2023-06-10T03:13:07;9.75;;;3.45;;
80334;SDS011;69653;52.674;13.574;2023-06-10T03:15:35;10.20;;;3.63;;
80334;SDS011;69653;52.674;13.574;2023-06-10T03:18:06;10.23;;;3.58;;
80334;SDS011;69653;52.674;13.574;2023-06-10T03:20:34;8.80;;;4.00;;
80334;SDS011;69653;52.674;13.574;2023-06-10T03:23:07;10.65;;;4.22;;
80334;SDS011;69653;52.674;13.574;2023-06-10T03:25:35;9.00;;;4.05;;
80334;SDS011;69653;52.674;13.574;2023-06-10T03:28:04;11.30;;;3.75;;
80334;SDS011;69653;52.674;13.574;2023-06-10T03:30:32;9.10;;;3.30;;
80334;SDS011;69653;52.674;13.574;2023-06-10T03:33:00;10.68;;;4.25;;
80334;SDS011;69653;52.674;13.574;2023-06-10T03:35:37;8.80;;;3.50;;
80334;SDS011;69653;52.674;13.574;2023-06-10T03:38:10;12.48;;;4.45;;
80334;SDS011;69653;52.674;13.574;2023-06-10T03:40:41;8.10;;;3.70;;
80334;SDS011;69653;52.674;13.574;2023-06-10T03:43:10;12.27;;;4.35;;
80334;SDS011;69653;52.674;13.574;2023-06-10T03:45:39;11.30;;;4.18;;
80334;SDS011;69653;52.674;13.574;2023-06-10T03:48:06;8.52;;;4.13;;
80334;SDS011;69653;52.674;13.574;2023-06-10T03:50:35;8.63;;;3.85;;
80334;SDS011;69653;52.674;13.574;2023-06-10T03:53:04;10.02;;;3.85;;
80334;SDS011;69653;52.674;13.574;2023-06-10T03:55:32;14.63;;;5.18;;
80334;SDS011;69653;52.674;13.574;2023-06-10T03:58:03;8.95;;;3.95;;
80334;SDS011;69653;52.674;13.574;2023-06-10T04:00:32;12.90;;;4.43;;
80334;SDS011;69653;52.674;13.574;2023-06-10T04:03:11;12.35;;;4.10;;
80334;SDS011;69653;52.674;13.574;2023-06-10T04:05:43;11.20;;;4.18;;
80334;SDS011;69653;52.674;13.574;2023-06-10T04:08:12;8.07;;;3.65;;
80334;SDS011;69653;52.674;13.574;2023-06-10T04:10:39;10.77;;;4.15;;
80334;SDS011;69653;52.674;13.574;2023-06-10T04:13:09;10.63;;;4.00;;
80334;SDS011;69653;52.674;13.574;2023-06-10T04:15:48;13.82;;;4.28;;
80334;SDS011;69653;52.674;13.574;2023-06-10T04:18:21;7.28;;;3.65;;
80334;SDS011;69653;52.674;13.574;2023-06-10T04:20:48;11.27;;;4.13;;
80334;SDS011;69653;52.674;13.574;2023-06-10T04:23:17;9.25;;;4.13;;
80334;SDS011;69653;52.674;13.574;2023-06-10T04:25:44;6.30;;;3.38;;
80334;SDS011;69653;52.674;13.574;2023-06-10T04:28:12;16.30;;;4.07;;
80334;SDS011;69653;52.674;13.574;2023-06-10T04:30:46;8.75;;;3.78;;
80334;SDS011;69653;52.674;13.574;2023-06-10T04:33:12;8.55;;;3.58;;
80334;SDS011;69653;52.674;13.574;2023-06-10T04:35:58;9.38;;;3.97;;
80334;SDS011;69653;52.674;13.574;2023-06-10T04:38:27;12.50;;;4.35;;
80334;SDS011;69653;52.674;13.574;2023-06-10T04:40:57;11.07;;;4.50;;
80334;SDS011;69653;52.674;13.574;2023-06-10T04:43:25;11.40;;;4.03;;
80334;SDS011;69653;52.674;13.574;2023-06-10T04:45:56;11.90;;;4.57;;
80334;SDS011;69653;52.674;13.574;2023-06-10T04:48:31;7.88;;;4.22;;
80334;SDS011;69653;52.674;13.574;2023-06-10T04:51:03;11.90;;;4.13;;
80334;SDS011;69653;52.674;13.574;2023-06-10T04:53:35;8.95;;;4.28;;
80334;SDS011;69653;52.674;13.574;2023-06-10T04:56:02;8.00;;;3.53;;
80334;SDS011;69653;52.674;13.574;2023-06-10T04:58:33;7.85;;;3.60;;
80334;SDS011;69653;52.674;13.574;2023-06-10T05:01:12;9.48;;;4.15;;
80334;SDS011;69653;52.674;13.574;2023-06-10T05:03:42;10.38;;;4.28;;
80334;SDS011;69653;52.674;13.574;2023-06-10T05:06:11;8.25;;;4.32;;
80334;SDS011;69653;52.674;13.574;2023-06-10T05:08:39;8.23;;;4.22;;
80334;SDS011;69653;52.674;13.574;2023-06-10T05:11:05;7.45;;;3.78;;
80334;SDS011;69653;52.674;13.574;2023-06-10T05:13:32;11.18;;;4.50;;
80334;SDS011;69653;52.674;13.574;2023-06-10T05:15:59;8.48;;;3.72;;
80334;SDS011;69653;52.674;13.574;2023-06-10T05:18:25;9.63;;;4.00;;
80334;SDS011;69653;52.674;13.574;2023-06-10T05:20:52;10.00;;;4.38;;
80334;SDS011;69653;52.674;13.574;2023-06-10T05:23:22;7.85;;;3.70;;
80334;SDS011;69653;52.674;13.574;2023-06-10T05:25:48;11.27;;;4.60;;
80334;SDS011;69653;52.674;13.574;2023-06-10T05:28:15;10.52;;;3.92;;
80334;SDS011;69653;52.674;13.574;2023-06-10T05:30:42;9.50;;;3.80;;
80334;SDS011;69653;52.674;13.574;2023-06-10T05:33:08;8.77;;;3.22;;
80334;SDS011;69653;52.674;13.574;2023-06-10T05:35:35;9.25;;;4.30;;
80334;SDS011;69653;52.674;13.574;2023-06-10T05:38:02;8.88;;;3.60;;
80334;SDS011;69653;52.674;13.574;2023-06-10T05:40:29;9.15;;;3.67;;
80334;SDS011;69653;52.674;13.574;2023-06-10T05:42:58;8.65;;;3.92;;
80334;SDS011;69653;52.674;13.574;2023-06-10T05:45:25;11.85;;;3.90;;
80334;SDS011;69653;52.674;13.574;2023-06-10T05:47:52;10.75;;;3.80;;
80334;SDS011;69653;52.674;13.574;2023-06-10T05:50:19;8.52;;;3.40;;
80334;SDS011;69653;52.674;13.574;2023-06-10T05:52:47;8.48;;;3.65;;
80334;SDS011;69653;52.674;13.574;2023-06-10T05:55:15;9.65;;;3.97;;
80334;SDS011;69653;52.674;13.574;2023-06-10T05:57:44;8.73;;;3.78;;
80334;SDS011;69653;52.674;13.574;2023-06-10T06:00:11;9.10;;;3.75;;
80334;SDS011;69653;52.674;13.574;2023-06-10T06:02:38;8.65;;;3.60;;
80334;SDS011;69653;52.674;13.574;2023-06-10T06:05:05;9.05;;;3.90;;
80334;SDS011;69653;52.674;13.574;2023-06-10T06:07:32;8.13;;;3.92;;
80334;SDS011;69653;52.674;13.574;2023-06-10T06:10:00;9.20;;;4.10;;
80334;SDS011;69653;52.674;13.574;2023-06-10T06:12:27;6.85;;;3.50;;
80334;SDS011;69653;52.674;13.574;2023-06-10T06:14:57;8.30;;;3.75;;
80334;SDS011;69653;52.674;13.574;2023-06-10T06:17:24;9.77;;;3.70;;
80334;SDS011;69653;52.674;13.574;2023-06-10T06:19:50;7.78;;;3.67;;
80334;SDS011;69653;52.674;13.574;2023-06-10T06:22:17;8.13;;;3.58;;
80334;SDS011;69653;52.674;13.574;2023-06-10T06:24:46;7.55;;;4.10;;
80334;SDS011;69653;52.674;13.574;2023-06-10T06:27:14;7.25;;;3.38;;
80334;SDS011;69653;52.674;13.574;2023-06-10T06:29:43;10.70;;;3.83;;
80334;SDS011;69653;52.674;13.574;2023-06-10T06:32:11;7.75;;;3.95;;
80334;SDS011;69653;52.674;13.574;2023-06-10T06:34:40;8.55;;;4.18;;
80334;SDS011;69653;52.674;13.574;2023-06-10T06:37:08;7.75;;;3.65;;
80334;SDS011;69653;52.674;13.574;2023-06-10T06:39:35;8.20;;;3.92;;
80334;SDS011;69653;52.674;13.574;2023-06-10T06:42:02;8.10;;;3.58;;
80334;SDS011;69653;52.674;13.574;2023-06-10T06:44:28;10.60;;;4.45;;
80334;SDS011;69653;52.674;13.574;2023-06-10T06:46:55;7.68;;;3.55;;
80334;SDS011;69653;52.674;13.574;2023-06-10T06:49:21;9.05;;;3.30;;
80334;SDS011;69653;52.674;13.574;2023-06-10T06:51:48;10.00;;;4.03;;
80334;SDS011;69653;52.674;13.574;2023-06-10T06:54:15;7.30;;;3.42;;
80334;SDS011;69653;52.674;13.574;2023-06-10T06:56:42;8.50;;;3.97;;
80334;SDS011;69653;52.674;13.574;2023-06-10T06:59:09;11.27;;;4.40;;
80334;SDS011;69653;52.674;13.574;2023-06-10T07:01:39;7.78;;;3.45;;
80334;SDS011;69653;52.674;13.574;2023-06-10T07:04:08;7.82;;;3.42;;
80334;SDS011;69653;52.674;13.574;2023-06-10T07:06:36;8.68;;;4.03;;
80334;SDS011;69653;52.674;13.574;2023-06-10T07:09:07;7.47;;;3.88;;
80334;SDS011;69653;52.674;13.574;2023-06-10T07:11:36;9.82;;;3.58;;
80334;SDS011;69653;52.674;13.574;2023-06-10T07:14:04;10.55;;;3.40;;
80334;SDS011;69653;52.674;13.574;2023-06-10T07:16:34;8.13;;;3.75;;
80334;SDS011;69653;52.674;13.574;2023-06-10T07:19:01;14.93;;;7.43;;
80334;SDS011;69653;52.674;13.574;2023-06-10T07:21:27;9.73;;;4.32;;
80334;SDS011;69653;52.674;13.574;2023-06-10T07:24:03;7.70;;;3.70;;
80334;SDS011;69653;52.674;13.574;2023-06-10T07:26:32;8.82;;;3.60;;
80334;SDS011;69653;52.674;13.574;2023-06-10T07:28:58;10.10;;;3.78;;
80334;SDS011;69653;52.674;13.574;2023-06-10T07:31:25;9.13;;;3.78;;
80334;SDS011;69653;52.674;13.574;2023-06-10T07:33:54;8.30;;;4.38;;
80334;SDS011;69653;52.674;13.574;2023-06-10T07:36:39;8.50;;;3.88;;
80334;SDS011;69653;52.674;13.574;2023-06-10T07:39:48;8.13;;;3.90;;
80334;SDS011;69653;52.674;13.574;2023-06-10T07:42:34;9.93;;;3.83;;
80334;SDS011;69653;52.674;13.574;2023-06-10T07:46:03;7.40;;;3.17;;
80334;SDS011;69653;52.674;13.574;2023-06-10T07:48:50;6.43;;;3.35;;
80334;SDS011;69653;52.674;13.574;2023-06-10T07:51:49;8.02;;;3.90;;
80334;SDS011;69653;52.674;13.574;2023-06-10T07:54:20;6.38;;;3.97;;
80334;SDS011;69653;52.674;13.574;2023-06-10T07:56:57;8.20;;;4.07;;
80334;SDS011;69653;52.674;13.574;2023-06-10T07:59:26;7.45;;;3.88;;
80334;SDS011;69653;52.674;13.574;2023-06-10T08:01:53;10.00;;;4.88;;
80334;SDS011;69653;52.674;13.574;2023-06-10T08:04:24;9.25;;;4.07;;
80334;SDS011;69653;52.674;13.574;2023-06-10T08:06:54;7.25;;;4.32;;
80334;SDS011;69653;52.674;13.574;2023-06-10T08:09:22;10.30;;;4.25;;
80334;SDS011;69653;52.674;13.574;2023-06-10T08:11:49;9.38;;;4.22;;
80334;SDS011;69653;52.674;13.574;2023-06-10T08:14:18;8.35;;;4.35;;
80334;SDS011;69653;52.674;13.574;2023-06-10T08:16:45;15.68;;;4.53;;
80334;SDS011;69653;52.674;13.574;2023-06-10T08:19:13;9.80;;;4.47;;
80334;SDS011;69653;52.674;13.574;2023-06-10T08:21:42;10.10;;;4.53;;
80334;SDS011;69653;52.674;13.574;2023-06-10T08:24:11;8.30;;;5.00;;
80334;SDS011;69653;52.674;13.574;2023-06-10T08:26:43;10.38;;;4.03;;
80334;SDS011;69653;52.674;13.574;2023-06-10T08:29:11;11.88;;;4.55;;
80334;SDS011;69653;52.674;13.574;2023-06-10T08:31:43;9.68;;;4.65;;
80334;SDS011;69653;52.674;13.574;2023-06-10T08:34:13;8.23;;;3.92;;
80334;SDS011;69653;52.674;13.574;2023-06-10T08:36:55;9.65;;;4.25;;
80334;SDS011;69653;52.674;13.574;2023-06-10T08:39:25;6.20;;;3.78;;
80334;SDS011;69653;52.674;13.574;2023-06-10T08:45:03;7.22;;;3.70;;
80334;SDS011;69653;52.674;13.574;2023-06-10T08:47:34;9.38;;;4.18;;
80334;SDS011;69653;52.674;13.574;2023-06-10T08:50:05;7.03;;;3.85;;
80334;SDS011;69653;52.674;13.574;2023-06-10T08:52:37;8.10;;;4.28;;
80334;SDS011;69653;52.674;13.574;2023-06-10T08:55:21;10.10;;;4.60;;
80334;SDS011;69653;52.674;13.574;2023-06-10T08:57:57;10.52;;;4.70;;
80334;SDS011;69653;52.674;13.574;2023-06-10T09:00:26;9.68;;;5.28;;
80334;SDS011;69653;52.674;13.574;2023-06-10T09:02:52;9.80;;;4.72;;
80334;SDS011;69653;52.674;13.574;2023-06-10T09:05:17;9.70;;;5.60;;
80334;SDS011;69653;52.674;13.574;2023-06-10T09:07:45;15.40;;;5.82;;
80334;SDS011;69653;52.674;13.574;2023-06-10T09:10:11;11.70;;;4.93;;
80334;SDS011;69653;52.674;13.574;2023-06-10T09:12:36;9.40;;;4.78;;
80334;SDS011;69653;52.674;13.574;2023-06-10T09:15:03;13.55;;;5.60;;
80334;SDS011;69653;52.674;13.574;2023-06-10T09:17:29;9.88;;;5.25;;
80334;SDS011;69653;52.674;13.574;2023-06-10T09:19:54;11.60;;;5.38;;
80334;SDS011;69653;52.674;13.574;2023-06-10T09:22:22;7.82;;;4.45;;
80334;SDS011;69653;52.674;13.574;2023-06-10T09:24:48;9.48;;;4.97;;
80334;SDS011;69653;52.674;13.574;2023-06-10T09:27:13;9.17;;;5.93;;
80334;SDS011;69653;52.674;13.574;2023-06-10T09:29:46;14.17;;;6.50;;
80334;SDS011;69653;52.674;13.574;2023-06-10T09:32:20;13.13;;;6.15;;
80334;SDS011;69653;52.674;13.574;2023-06-10T09:34:46;12.33;;;6.13;;
80334;SDS011;69653;52.674;13.574;2023-06-10T09:37:12;13.27;;;6.70;;
80334;SDS011;69653;52.674;13.574;2023-06-10T09:39:44;11.77;;;6.20;;
80334;SDS011;69653;52.674;13.574;2023-06-10T09:42:18;10.00;;;5.77;;
80334;SDS011;69653;52.674;13.574;2023-06-10T09:44:50;11.00;;;6.13;;
80334;SDS011;69653;52.674;13.574;2023-06-10T09:47:23;11.07;;;6.15;;
80334;SDS011;69653;52.674;13.574;2023-06-10T09:49:48;11.95;;;6.30;;
80334;SDS011;69653;52.674;13.574;2023-06-10T09:52:20;8.65;;;5.72;;
80334;SDS011;69653;52.674;13.574;2023-06-10T09:54:50;10.10;;;5.63;;
80334;SDS011;69653;52.674;13.574;2023-06-10T09:57:17;9.18;;;5.88;;
80334;SDS011;69653;52.674;13.574;2023-06-10T09:59:42;8.90;;;5.40;;
80334;SDS011;69653;52.674;13.574;2023-06-10T10:02:14;8.93;;;5.30;;
80334;SDS011;69653;52.674;13.574;2023-06-10T10:04:41;8.55;;;5.20;;
80334;SDS011;69653;52.674;13.574;2023-06-10T10:07:07;8.77;;;6.13;;
80334;SDS011;69653;52.674;13.574;2023-06-10T10:09:33;11.95;;;6.22;;
80334;SDS011;69653;52.674;13.574;2023-06-10T10:12:00;11.38;;;6.63;;
80334;SDS011;69653;52.674;13.574;2023-06-10T10:14:28;9.73;;;6.15;;
80334;SDS011;69653;52.674;13.574;2023-06-10T10:16:56;6.07;;;3.42;;
80334;SDS011;69653;52.674;13.574;2023-06-10T10:19:25;6.35;;;3.72;;
80334;SDS011;69653;52.674;13.574;2023-06-10T10:21:54;7.50;;;3.75;;
80334;SDS011;69653;52.674;13.574;2023-06-10T10:24:30;8.02;;;3.58;;
80334;SDS011;69653;52.674;13.574;2023-06-10T10:27:01;7.32;;;3.92;;
80334;SDS011;69653;52.674;13.574;2023-06-10T10:29:34;9.50;;;4.60;;
80334;SDS011;69653;52.674;13.574;2023-06-10T10:32:03;10.43;;;5.55;;
80334;SDS011;69653;52.674;13.574;2023-06-10T10:37:32;13.82;;;7.43;;
80334;SDS011;69653;52.674;13.574;2023-06-10T10:39:58;11.52;;;7.25;;
80334;SDS011;69653;52.674;13.574;2023-06-10T10:42:26;13.25;;;7.65;;
80334;SDS011;69653;52.674;13.574;2023-06-10T10:44:52;13.93;;;8.38;;
80334;SDS011;69653;52.674;13.574;2023-06-10T10:47:19;13.43;;;7.57;;
80334;SDS011;69653;52.674;13.574;2023-06-10T10:49:46;13.55;;;9.05;;
80334;SDS011;69653;52.674;13.574;2023-06-10T10:52:15;13.35;;;8.55;;
80334;SDS011;69653;52.674;13.574;2023-06-10T10:54:43;13.43;;;8.97;;
80334;SDS011;69653;52.674;13.574;2023-06-10T10:59:57;13.52;;;8.48;;
80334;SDS011;69653;52.674;13.574;2023-06-10T11:02:33;12.88;;;8.35;;
80334;SDS011;69653;52.674;13.574;2023-06-10T11:05:06;13.00;;;8.82;;
80334;SDS011;69653;52.674;13.574;2023-06-10T11:07:32;13.27;;;8.77;;
80334;SDS011;69653;52.674;13.574;2023-06-10T11:10:03;12.00;;;8.40;;
80334;SDS011;69653;52.674;13.574;2023-06-10T11:15:09;13.82;;;7.32;;
80334;SDS011;69653;52.674;13.574;2023-06-10T11:17:35;12.52;;;7.85;;
80334;SDS011;69653;52.674;13.574;2023-06-10T11:20:00;13.88;;;8.43;;
80334;SDS011;69653;52.674;13.574;2023-06-10T11:22:25;13.80;;;8.20;;
80334;SDS011;69653;52.674;13.574;2023-06-10T11:24:51;10.73;;;7.07;;
80334;SDS011;69653;52.674;13.574;2023-06-10T11:27:17;10.38;;;6.85;;
80334;SDS011;69653;52.674;13.574;2023-06-10T11:29:57;10.43;;;6.93;;
80334;SDS011;69653;52.674;13.574;2023-06-10T11:32:23;9.65;;;6.50;;
80334;SDS011;69653;52.674;13.574;2023-06-10T11:34:54;9.52;;;7.07;;
80334;SDS011;69653;52.674;13.574;2023-06-10T11:37:20;10.07;;;6.75;;
80334;SDS011;69653;52.674;13.574;2023-06-10T11:39:46;12.13;;;7.68;;
80334;SDS011;69653;52.674;13.574;2023-06-10T11:42:12;7.65;;;6.25;;
80334;SDS011;69653;52.674;13.574;2023-06-10T11:44:37;9.32;;;6.78;;
80334;SDS011;69653;52.674;13.574;2023-06-10T11:47:03;9.40;;;6.03;;
80334;SDS011;69653;52.674;13.574;2023-06-10T11:49:29;8.90;;;6.57;;
80334;SDS011;69653;52.674;13.574;2023-06-10T11:51:54;10.90;;;8.13;;
80334;SDS011;69653;52.674;13.574;2023-06-10T11:54:20;10.67;;;6.93;;
80334;SDS011;69653;52.674;13.574;2023-06-10T11:56:46;11.32;;;7.30;;
80334;SDS011;69653;52.674;13.574;2023-06-10T11:59:13;9.57;;;6.50;;
80334;SDS011;69653;52.674;13.574;2023-06-10T12:01:42;10.27;;;7.82;;
80334;SDS011;69653;52.674;13.574;2023-06-10T12:04:10;10.13;;;7.05;;
80334;SDS011;69653;52.674;13.574;2023-06-10T12:06:41;9.90;;;6.75;;
80334;SDS011;69653;52.674;13.574;2023-06-10T12:09:15;8.38;;;6.50;;
80334;SDS011;69653;52.674;13.574;2023-06-10T12:11:52;8.60;;;6.40;;
80334;SDS011;69653;52.674;13.574;2023-06-10T12:19:59;9.85;;;6.85;;
80334;SDS011;69653;52.674;13.574;2023-06-10T12:22:25;13.82;;;6.55;;
80334;SDS011;69653;52.674;13.574;2023-06-10T12:24:57;9.65;;;6.32;;
80334;SDS011;69653;52.674;13.574;2023-06-10T12:27:24;9.18;;;5.80;;
80334;SDS011;69653;52.674;13.574;2023-06-10T12:29:50;8.48;;;5.82;;
80334;SDS011;69653;52.674;13.574;2023-06-10T12:32:18;8.27;;;5.88;;
80334;SDS011;69653;52.674;13.574;2023-06-10T12:34:45;10.48;;;6.32;;
80334;SDS011;69653;52.674;13.574;2023-06-10T12:37:12;7.32;;;6.18;;
80334;SDS011;69653;52.674;13.574;2023-06-10T12:39:41;9.40;;;6.13;;
80334;SDS011;69653;52.674;13.574;2023-06-10T12:42:11;9.82;;;6.45;;
80334;SDS011;69653;52.674;13.574;2023-06-10T12:47:09;9.25;;;6.07;;
80334;SDS011;69653;52.674;13.574;2023-06-10T12:49:37;8.75;;;5.93;;
80334;SDS011;69653;52.674;13.574;2023-06-10T12:52:03;9.40;;;5.82;;
80334;SDS011;69653;52.674;13.574;2023-06-10T12:54:29;7.97;;;5.80;;
80334;SDS011;69653;52.674;13.574;2023-06-10T12:56:54;8.25;;;5.47;;
80334;SDS011;69653;52.674;13.574;2023-06-10T12:59:20;8.97;;;5.90;;
80334;SDS011;69653;52.674;13.574;2023-06-10T13:01:51;8.53;;;5.40;;
80334;SDS011;69653;52.674;13.574;2023-06-10T13:04:17;7.65;;;5.70;;
80334;SDS011;69653;52.674;13.574;2023-06-10T13:06:43;7.20;;;5.70;;
80334;SDS011;69653;52.674;13.574;2023-06-10T13:09:08;10.70;;;5.43;;
80334;SDS011;69653;52.674;13.574;2023-06-10T13:11:34;6.80;;;4.80;;
80334;SDS011;69653;52.674;13.574;2023-06-10T13:14:00;8.30;;;5.90;;
80334;SDS011;69653;52.674;13.574;2023-06-10T13:16:26;9.07;;;5.70;;
80334;SDS011;69653;52.674;13.574;2023-06-10T13:18:53;8.50;;;5.17;;
80334;SDS011;69653;52.674;13.574;2023-06-10T13:21:18;7.45;;;5.32;;
80334;SDS011;69653;52.674;13.574;2023-06-10T13:23:45;9.57;;;5.80;;
80334;SDS011;69653;52.674;13.574;2023-06-10T13:26:13;6.55;;;4.22;;
80334;SDS011;69653;52.674;13.574;2023-06-10T13:28:38;7.45;;;4.50;;
80334;SDS011;69653;52.674;13.574;2023-06-10T13:31:04;7.37;;;3.67;;
80334;SDS011;69653;52.674;13.574;2023-06-10T13:33:29;6.47;;;3.90;;
80334;SDS011;69653;52.674;13.574;2023-06-10T13:35:54;7.70;;;4.50;;
80334;SDS011;69653;52.674;13.574;2023-06-10T13:38:20;8.30;;;4.53;;
80334;SDS011;69653;52.674;13.574;2023-06-10T13:40:45;5.87;;;3.90;;
80334;SDS011;69653;52.674;13.574;2023-06-10T13:43:10;7.87;;;4.17;;
80334;SDS011;69653;52.674;13.574;2023-06-10T13:45:36;6.20;;;4.07;;
80334;SDS011;69653;52.674;13.574;2023-06-10T13:48:02;5.17;;;4.20;;
80334;SDS011;69653;52.674;13.574;2023-06-10T13:50:29;7.32;;;4.47;;
80334;SDS011;69653;52.674;13.574;2023-06-10T13:52:54;5.40;;;3.67;;
80334;SDS011;69653;52.674;13.574;2023-06-10T13:55:19;5.93;;;4.00;;
80334;SDS011;69653;52.674;13.574;2023-06-10T13:57:45;6.43;;;4.07;;
80334;SDS011;69653;52.674;13.574;2023-06-10T14:00:11;6.63;;;4.03;;
80334;SDS011;69653;52.674;13.574;2023-06-10T14:02:36;7.07;;;4.57;;
80334;SDS011;69653;52.674;13.574;2023-06-10T14:05:02;6.80;;;4.30;;
80334;SDS011;69653;52.674;13.574;2023-06-10T14:07:27;6.40;;;4.60;;
80334;SDS011;69653;52.674;13.574;2023-06-10T14:09:53;12.32;;;5.07;;
80334;SDS011;69653;52.674;13.574;2023-06-10T14:12:18;6.87;;;4.70;;
80334;SDS011;69653;52.674;13.574;2023-06-10T14:14:44;7.95;;;4.43;;
80334;SDS011;69653;52.674;13.574;2023-06-10T14:17:09;9.10;;;4.85;;
80334;SDS011;69653;52.674;13.574;2023-06-10T14:19:34;6.87;;;4.13;;
80334;SDS011;69653;52.674;13.574;2023-06-10T14:22:00;6.95;;;4.60;;
80334;SDS011;69653;52.674;13.574;2023-06-10T14:24:25;6.63;;;4.50;;
80334;SDS011;69653;52.674;13.574;2023-06-10T14:26:50;7.30;;;4.70;;
80334;SDS011;69653;52.674;13.574;2023-06-10T14:29:16;6.20;;;4.43;;
80334;SDS011;69653;52.674;13.574;2023-06-10T14:31:43;6.88;;;4.63;;
80334;SDS011;69653;52.674;13.574;2023-06-10T14:34:08;6.97;;;4.43;;
80334;SDS011;69653;52.674;13.574;2023-06-10T14:36:34;5.90;;;4.10;;
80334;SDS011;69653;52.674;13.574;2023-06-10T14:39:00;8.43;;;5.07;;
80334;SDS011;69653;52.674;13.574;2023-06-10T14:41:25;7.35;;;4.90;;
80334;SDS011;69653;52.674;13.574;2023-06-10T14:43:51;7.47;;;4.67;;
80334;SDS011;69653;52.674;13.574;2023-06-10T14:46:16;5.90;;;4.07;;
80334;SDS011;69653;52.674;13.574;2023-06-10T14:48:42;7.60;;;4.38;;
80334;SDS011;69653;52.674;13.574;2023-06-10T14:51:07;7.25;;;4.53;;
80334;SDS011;69653;52.674;13.574;2023-06-10T14:53:33;8.90;;;5.10;;
80334;SDS011;69653;52.674;13.574;2023-06-10T14:55:58;6.50;;;4.40;;
80334;SDS011;69653;52.674;13.574;2023-06-10T14:58:23;7.07;;;5.20;;
80334;SDS011;69653;52.674;13.574;2023-06-10T15:00:48;8.37;;;5.10;;
80334;SDS011;69653;52.674;13.574;2023-06-10T15:03:14;8.43;;;4.97;;
80334;SDS011;69653;52.674;13.574;2023-06-10T15:05:39;7.47;;;5.30;;
80334;SDS011;69653;52.674;13.574;2023-06-10T15:08:05;7.05;;;4.88;;